sensor_id;sensor_type;location;lat;lon;timestamp;P1;durP1;ratioP1;P2;durP2;ratioP2
37221;SDS011;23119;51.842;-2.230;2022-11-09T00:01:01;9.18;;;0.73;;
37221;SDS011;23119;51.842;-2.230;2022-11-09T00:03:31;9.07;;;0.80;;
37221;SDS011;23119;51.842;-2.230;2022-11-09T00:05:59;15.88;;;1.02;;
37221;SDS011;23119;51.842;-2.230;2022-11-09T00:08:28;9.27;;;0.60;;
37221;SDS011;23119;51.842;-2.230;2022-11-09T00:13:52;6.43;;;1.10;;
37221;SDS011;23119;51.842;-2.230;2022-11-09T00:16:20;10.27;;;0.88;;
37221;SDS011;23119;51.842;-2.230;2022-11-09T00:18:47;9.48;;;0.88;;
37221;SDS011;23119;51.842;-2.230;2022-11-09T00:21:14;11.27;;;0.90;;
37221;SDS011;23119;51.842;-2.230;2022-11-09T00:23:44;14.10;;;0.80;;
37221;SDS011;23119;51.842;-2.230;2022-11-09T00:26:13;12.63;;;0.90;;
37221;SDS011;23119;51.842;-2.230;2022-11-09T00:28:42;8.43;;;0.73;;
37221;SDS011;23119;51.842;-2.230;2022-11-09T00:31:12;12.27;;;0.80;;
37221;SDS011;23119;51.842;-2.230;2022-11-09T00:33:41;9.38;;;1.00;;
37221;SDS011;23119;51.842;-2.230;2022-11-09T00:36:10;10.07;;;1.00;;
37221;SDS011;23119;51.842;-2.230;2022-11-09T00:38:41;19.80;;;0.90;;
37221;SDS011;23119;51.842;-2.230;2022-11-09T00:41:17;15.07;;;0.70;;
37221;SDS011;23119;51.842;-2.230;2022-11-09T00:43:48;6.80;;;0.80;;
37221;SDS011;23119;51.842;-2.230;2022-11-09T00:46:25;8.15;;;0.93;;
37221;SDS011;23119;51.842;-2.230;2022-11-09T00:48:56;12.68;;;0.95;;
37221;SDS011;23119;51.842;-2.230;2022-11-09T00:51:29;19.17;;;1.58;;
37221;SDS011;23119;51.842;-2.230;2022-11-09T00:54:01;16.40;;;1.48;;
37221;SDS011;23119;51.842;-2.230;2022-11-09T00:56:29;12.25;;;0.80;;
37221;SDS011;23119;51.842;-2.230;2022-11-09T00:58:57;9.18;;;0.65;;
37221;SDS011;23119;51.842;-2.230;2022-11-09T01:01:26;6.78;;;0.70;;
37221;SDS011;23119;51.842;-2.230;2022-11-09T01:04:03;11.70;;;1.27;;
37221;SDS011;23119;51.842;-2.230;2022-11-09T01:06:29;10.65;;;0.70;;
37221;SDS011;23119;51.842;-2.230;2022-11-09T01:08:57;6.47;;;0.65;;
37221;SDS011;23119;51.842;-2.230;2022-11-09T01:11:22;12.45;;;0.57;;
37221;SDS011;23119;51.842;-2.230;2022-11-09T01:13:51;12.20;;;1.05;;
37221;SDS011;23119;51.842;-2.230;2022-11-09T01:16:20;7.97;;;0.47;;
37221;SDS011;23119;51.842;-2.230;2022-11-09T01:18:50;11.38;;;1.40;;
37221;SDS011;23119;51.842;-2.230;2022-11-09T01:21:20;8.83;;;1.10;;
37221;SDS011;23119;51.842;-2.230;2022-11-09T01:23:50;11.43;;;2.25;;
37221;SDS011;23119;51.842;-2.230;2022-11-09T01:26:18;12.82;;;0.70;;
37221;SDS011;23119;51.842;-2.230;2022-11-09T01:29:07;10.98;;;0.75;;
37221;SDS011;23119;51.842;-2.230;2022-11-09T01:31:35;13.07;;;0.70;;
37221;SDS011;23119;51.842;-2.230;2022-11-09T01:34:12;5.97;;;0.60;;
37221;SDS011;23119;51.842;-2.230;2022-11-09T01:36:41;10.65;;;1.00;;
37221;SDS011;23119;51.842;-2.230;2022-11-09T01:39:10;11.63;;;0.82;;
37221;SDS011;23119;51.842;-2.230;2022-11-09T01:41:46;9.77;;;0.65;;
37221;SDS011;23119;51.842;-2.230;2022-11-09T01:44:15;14.18;;;0.80;;
37221;SDS011;23119;51.842;-2.230;2022-11-09T01:46:50;10.27;;;0.77;;
37221;SDS011;23119;51.842;-2.230;2022-11-09T01:52:01;9.82;;;1.77;;
37221;SDS011;23119;51.842;-2.230;2022-11-09T01:54:37;11.18;;;0.80;;
37221;SDS011;23119;51.842;-2.230;2022-11-09T01:57:18;9.80;;;0.60;;
37221;SDS011;23119;51.842;-2.230;2022-11-09T01:59:51;9.23;;;0.60;;
37221;SDS011;23119;51.842;-2.230;2022-11-09T02:02:28;12.38;;;0.70;;
37221;SDS011;23119;51.842;-2.230;2022-11-09T02:04:56;12.38;;;0.70;;
37221;SDS011;23119;51.842;-2.230;2022-11-09T02:07:27;12.63;;;1.55;;
37221;SDS011;23119;51.842;-2.230;2022-11-09T02:12:22;13.77;;;1.50;;
37221;SDS011;23119;51.842;-2.230;2022-11-09T02:14:58;8.90;;;1.00;;
37221;SDS011;23119;51.842;-2.230;2022-11-09T02:17:29;13.75;;;0.85;;
37221;SDS011;23119;51.842;-2.230;2022-11-09T02:19:58;11.13;;;0.85;;
37221;SDS011;23119;51.842;-2.230;2022-11-09T02:22:30;14.90;;;0.77;;
37221;SDS011;23119;51.842;-2.230;2022-11-09T02:24:58;9.10;;;0.73;;
37221;SDS011;23119;51.842;-2.230;2022-11-09T02:27:24;13.15;;;2.67;;
37221;SDS011;23119;51.842;-2.230;2022-11-09T02:29:52;16.83;;;1.23;;
37221;SDS011;23119;51.842;-2.230;2022-11-09T02:32:25;8.10;;;0.55;;
37221;SDS011;23119;51.842;-2.230;2022-11-09T02:35:04;9.40;;;0.85;;
37221;SDS011;23119;51.842;-2.230;2022-11-09T02:40:17;10.37;;;0.70;;
37221;SDS011;23119;51.842;-2.230;2022-11-09T02:42:48;11.15;;;0.73;;
37221;SDS011;23119;51.842;-2.230;2022-11-09T02:45:23;16.83;;;1.10;;
37221;SDS011;23119;51.842;-2.230;2022-11-09T02:47:51;15.23;;;0.98;;
37221;SDS011;23119;51.842;-2.230;2022-11-09T02:50:17;18.35;;;1.00;;
37221;SDS011;23119;51.842;-2.230;2022-11-09T02:52:45;12.07;;;0.60;;
37221;SDS011;23119;51.842;-2.230;2022-11-09T02:55:16;21.35;;;1.17;;
37221;SDS011;23119;51.842;-2.230;2022-11-09T02:57:53;14.02;;;2.05;;
37221;SDS011;23119;51.842;-2.230;2022-11-09T03:00:19;13.27;;;0.90;;
37221;SDS011;23119;51.842;-2.230;2022-11-09T03:05:18;11.88;;;1.10;;
37221;SDS011;23119;51.842;-2.230;2022-11-09T03:07:46;15.05;;;0.85;;
37221;SDS011;23119;51.842;-2.230;2022-11-09T03:10:35;14.27;;;1.23;;
37221;SDS011;23119;51.842;-2.230;2022-11-09T03:13:06;12.73;;;1.00;;
37221;SDS011;23119;51.842;-2.230;2022-11-09T03:15:34;15.68;;;0.82;;
37221;SDS011;23119;51.842;-2.230;2022-11-09T03:18:02;11.23;;;0.68;;
37221;SDS011;23119;51.842;-2.230;2022-11-09T03:20:28;11.07;;;0.68;;
37221;SDS011;23119;51.842;-2.230;2022-11-09T03:22:57;7.38;;;0.52;;
37221;SDS011;23119;51.842;-2.230;2022-11-09T03:25:26;13.57;;;0.70;;
37221;SDS011;23119;51.842;-2.230;2022-11-09T03:27:56;16.60;;;1.17;;
37221;SDS011;23119;51.842;-2.230;2022-11-09T03:30:34;14.82;;;0.70;;
37221;SDS011;23119;51.842;-2.230;2022-11-09T03:33:03;15.45;;;0.70;;
37221;SDS011;23119;51.842;-2.230;2022-11-09T03:35:34;12.15;;;0.90;;
37221;SDS011;23119;51.842;-2.230;2022-11-09T03:38:01;12.68;;;0.68;;
37221;SDS011;23119;51.842;-2.230;2022-11-09T03:40:30;12.85;;;1.48;;
37221;SDS011;23119;51.842;-2.230;2022-11-09T03:42:57;9.82;;;1.10;;
37221;SDS011;23119;51.842;-2.230;2022-11-09T03:45:31;9.60;;;0.70;;
37221;SDS011;23119;51.842;-2.230;2022-11-09T03:48:02;8.93;;;0.60;;
37221;SDS011;23119;51.842;-2.230;2022-11-09T03:50:31;13.00;;;0.70;;
37221;SDS011;23119;51.842;-2.230;2022-11-09T03:53:00;11.50;;;0.70;;
37221;SDS011;23119;51.842;-2.230;2022-11-09T03:55:27;8.90;;;0.93;;
37221;SDS011;23119;51.842;-2.230;2022-11-09T03:57:58;9.93;;;0.70;;
37221;SDS011;23119;51.842;-2.230;2022-11-09T04:00:28;11.20;;;0.60;;
37221;SDS011;23119;51.842;-2.230;2022-11-09T04:03:00;15.85;;;0.63;;
37221;SDS011;23119;51.842;-2.230;2022-11-09T04:05:31;4.10;;;0.30;;
37221;SDS011;23119;51.842;-2.230;2022-11-09T04:07:56;7.05;;;0.50;;
37221;SDS011;23119;51.842;-2.230;2022-11-09T04:10:27;7.55;;;0.63;;
37221;SDS011;23119;51.842;-2.230;2022-11-09T04:12:53;5.55;;;0.28;;
37221;SDS011;23119;51.842;-2.230;2022-11-09T04:15:24;3.05;;;0.20;;
37221;SDS011;23119;51.842;-2.230;2022-11-09T04:17:57;4.43;;;0.30;;
37221;SDS011;23119;51.842;-2.230;2022-11-09T04:20:25;2.58;;;0.20;;
37221;SDS011;23119;51.842;-2.230;2022-11-09T04:22:55;3.13;;;0.20;;
37221;SDS011;23119;51.842;-2.230;2022-11-09T04:25:25;1.07;;;0.20;;
37221;SDS011;23119;51.842;-2.230;2022-11-09T04:27:57;1.40;;;0.10;;
37221;SDS011;23119;51.842;-2.230;2022-11-09T04:30:26;4.70;;;0.17;;
37221;SDS011;23119;51.842;-2.230;2022-11-09T04:32:53;3.00;;;0.47;;
37221;SDS011;23119;51.842;-2.230;2022-11-09T04:35:37;1.38;;;0.10;;
37221;SDS011;23119;51.842;-2.230;2022-11-09T04:38:07;7.38;;;0.20;;
37221;SDS011;23119;51.842;-2.230;2022-11-09T04:40:38;4.63;;;0.20;;
37221;SDS011;23119;51.842;-2.230;2022-11-09T04:43:09;2.20;;;0.30;;
37221;SDS011;23119;51.842;-2.230;2022-11-09T04:45:48;2.92;;;0.20;;
37221;SDS011;23119;51.842;-2.230;2022-11-09T04:48:16;3.83;;;0.22;;
37221;SDS011;23119;51.842;-2.230;2022-11-09T04:50:42;4.32;;;0.20;;
37221;SDS011;23119;51.842;-2.230;2022-11-09T04:53:08;5.05;;;0.20;;
37221;SDS011;23119;51.842;-2.230;2022-11-09T04:55:39;3.10;;;0.17;;
37221;SDS011;23119;51.842;-2.230;2022-11-09T04:58:11;7.45;;;0.20;;
37221;SDS011;23119;51.842;-2.230;2022-11-09T05:00:37;3.38;;;0.20;;
37221;SDS011;23119;51.842;-2.230;2022-11-09T05:03:03;2.60;;;0.13;;
37221;SDS011;23119;51.842;-2.230;2022-11-09T05:05:34;4.78;;;0.75;;
37221;SDS011;23119;51.842;-2.230;2022-11-09T05:08:04;2.40;;;0.20;;
37221;SDS011;23119;51.842;-2.230;2022-11-09T05:10:35;3.88;;;0.10;;
37221;SDS011;23119;51.842;-2.230;2022-11-09T05:13:10;2.35;;;0.17;;
37221;SDS011;23119;51.842;-2.230;2022-11-09T05:15:37;2.58;;;0.20;;
37221;SDS011;23119;51.842;-2.230;2022-11-09T05:18:14;3.88;;;0.10;;
37221;SDS011;23119;51.842;-2.230;2022-11-09T05:20:45;7.90;;;0.30;;
37221;SDS011;23119;51.842;-2.230;2022-11-09T05:23:24;1.50;;;0.20;;
37221;SDS011;23119;51.842;-2.230;2022-11-09T05:26:12;3.65;;;0.28;;
37221;SDS011;23119;51.842;-2.230;2022-11-09T05:28:49;3.10;;;0.10;;
37221;SDS011;23119;51.842;-2.230;2022-11-09T05:31:16;4.93;;;0.30;;
37221;SDS011;23119;51.842;-2.230;2022-11-09T05:33:47;1.88;;;0.10;;
37221;SDS011;23119;51.842;-2.230;2022-11-09T05:36:16;3.13;;;0.17;;
37221;SDS011;23119;51.842;-2.230;2022-11-09T05:38:48;4.65;;;0.30;;
37221;SDS011;23119;51.842;-2.230;2022-11-09T05:41:14;3.65;;;0.20;;
37221;SDS011;23119;51.842;-2.230;2022-11-09T05:43:43;2.53;;;0.10;;
37221;SDS011;23119;51.842;-2.230;2022-11-09T05:46:12;6.03;;;0.30;;
37221;SDS011;23119;51.842;-2.230;2022-11-09T05:48:44;3.92;;;0.20;;
37221;SDS011;23119;51.842;-2.230;2022-11-09T05:51:15;3.75;;;0.22;;
37221;SDS011;23119;51.842;-2.230;2022-11-09T05:53:49;5.65;;;0.20;;
37221;SDS011;23119;51.842;-2.230;2022-11-09T05:56:18;4.50;;;0.20;;
37221;SDS011;23119;51.842;-2.230;2022-11-09T05:58:44;5.13;;;0.20;;
37221;SDS011;23119;51.842;-2.230;2022-11-09T06:01:14;4.10;;;0.40;;
37221;SDS011;23119;51.842;-2.230;2022-11-09T06:03:43;3.97;;;0.73;;
37221;SDS011;23119;51.842;-2.230;2022-11-09T06:06:12;5.00;;;0.20;;
37221;SDS011;23119;51.842;-2.230;2022-11-09T06:08:42;2.90;;;0.10;;
37221;SDS011;23119;51.842;-2.230;2022-11-09T06:11:08;4.63;;;0.65;;
37221;SDS011;23119;51.842;-2.230;2022-11-09T06:13:35;2.72;;;0.32;;
37221;SDS011;23119;51.842;-2.230;2022-11-09T06:16:04;1.65;;;0.10;;
37221;SDS011;23119;51.842;-2.230;2022-11-09T06:18:31;7.43;;;0.40;;
37221;SDS011;23119;51.842;-2.230;2022-11-09T06:21:03;3.95;;;0.30;;
37221;SDS011;23119;51.842;-2.230;2022-11-09T06:23:32;4.18;;;0.20;;
37221;SDS011;23119;51.842;-2.230;2022-11-09T06:26:01;5.60;;;0.30;;
37221;SDS011;23119;51.842;-2.230;2022-11-09T06:28:32;3.22;;;0.20;;
37221;SDS011;23119;51.842;-2.230;2022-11-09T06:30:59;2.90;;;0.20;;
37221;SDS011;23119;51.842;-2.230;2022-11-09T06:33:31;6.15;;;0.30;;
37221;SDS011;23119;51.842;-2.230;2022-11-09T06:36:02;5.15;;;0.30;;
37221;SDS011;23119;51.842;-2.230;2022-11-09T06:38:28;2.53;;;0.28;;
37221;SDS011;23119;51.842;-2.230;2022-11-09T06:40:59;2.70;;;0.38;;
37221;SDS011;23119;51.842;-2.230;2022-11-09T06:43:30;5.85;;;0.30;;
37221;SDS011;23119;51.842;-2.230;2022-11-09T06:45:55;5.00;;;0.75;;
37221;SDS011;23119;51.842;-2.230;2022-11-09T06:48:26;3.88;;;0.10;;
37221;SDS011;23119;51.842;-2.230;2022-11-09T06:50:56;1.50;;;0.20;;
37221;SDS011;23119;51.842;-2.230;2022-11-09T06:53:41;7.03;;;0.20;;
37221;SDS011;23119;51.842;-2.230;2022-11-09T06:56:08;3.80;;;0.15;;
37221;SDS011;23119;51.842;-2.230;2022-11-09T06:58:38;3.65;;;0.20;;
37221;SDS011;23119;51.842;-2.230;2022-11-09T07:01:10;2.50;;;0.20;;
37221;SDS011;23119;51.842;-2.230;2022-11-09T07:03:40;2.05;;;0.10;;
37221;SDS011;23119;51.842;-2.230;2022-11-09T07:06:09;3.30;;;0.20;;
37221;SDS011;23119;51.842;-2.230;2022-11-09T07:08:42;3.10;;;0.17;;
37221;SDS011;23119;51.842;-2.230;2022-11-09T07:11:13;1.27;;;0.20;;
37221;SDS011;23119;51.842;-2.230;2022-11-09T07:13:43;1.42;;;0.20;;
37221;SDS011;23119;51.842;-2.230;2022-11-09T07:16:23;1.95;;;0.10;;
37221;SDS011;23119;51.842;-2.230;2022-11-09T07:18:48;6.22;;;0.10;;
37221;SDS011;23119;51.842;-2.230;2022-11-09T07:21:14;3.08;;;0.20;;
37221;SDS011;23119;51.842;-2.230;2022-11-09T07:23:42;3.83;;;0.20;;
37221;SDS011;23119;51.842;-2.230;2022-11-09T07:26:10;3.00;;;0.30;;
37221;SDS011;23119;51.842;-2.230;2022-11-09T07:28:41;1.80;;;0.28;;
37221;SDS011;23119;51.842;-2.230;2022-11-09T07:31:10;5.15;;;0.43;;
37221;SDS011;23119;51.842;-2.230;2022-11-09T07:33:35;4.28;;;0.30;;
37221;SDS011;23119;51.842;-2.230;2022-11-09T07:36:02;3.63;;;1.10;;
37221;SDS011;23119;51.842;-2.230;2022-11-09T07:38:29;5.78;;;0.30;;
37221;SDS011;23119;51.842;-2.230;2022-11-09T07:40:58;3.22;;;0.35;;
37221;SDS011;23119;51.842;-2.230;2022-11-09T07:43:28;3.15;;;0.20;;
37221;SDS011;23119;51.842;-2.230;2022-11-09T07:46:09;4.05;;;0.30;;
37221;SDS011;23119;51.842;-2.230;2022-11-09T07:48:40;7.38;;;0.52;;
37221;SDS011;23119;51.842;-2.230;2022-11-09T07:51:08;4.20;;;0.28;;
37221;SDS011;23119;51.842;-2.230;2022-11-09T07:53:39;6.00;;;0.40;;
37221;SDS011;23119;51.842;-2.230;2022-11-09T07:56:04;3.95;;;0.40;;
37221;SDS011;23119;51.842;-2.230;2022-11-09T07:58:31;4.45;;;0.40;;
37221;SDS011;23119;51.842;-2.230;2022-11-09T08:00:59;5.07;;;0.38;;
37221;SDS011;23119;51.842;-2.230;2022-11-09T08:03:28;2.08;;;0.20;;
37221;SDS011;23119;51.842;-2.230;2022-11-09T08:05:55;7.22;;;0.70;;
37221;SDS011;23119;51.842;-2.230;2022-11-09T08:08:31;2.88;;;0.30;;
37221;SDS011;23119;51.842;-2.230;2022-11-09T08:11:07;3.78;;;0.20;;
37221;SDS011;23119;51.842;-2.230;2022-11-09T08:13:33;5.30;;;0.25;;
37221;SDS011;23119;51.842;-2.230;2022-11-09T08:16:07;4.45;;;0.30;;
37221;SDS011;23119;51.842;-2.230;2022-11-09T08:18:36;4.60;;;0.28;;
37221;SDS011;23119;51.842;-2.230;2022-11-09T08:21:09;4.75;;;0.47;;
37221;SDS011;23119;51.842;-2.230;2022-11-09T08:26:09;3.28;;;0.30;;
37221;SDS011;23119;51.842;-2.230;2022-11-09T08:28:36;1.58;;;0.22;;
37221;SDS011;23119;51.842;-2.230;2022-11-09T08:31:07;5.70;;;0.22;;
37221;SDS011;23119;51.842;-2.230;2022-11-09T08:33:36;1.42;;;0.28;;
37221;SDS011;23119;51.842;-2.230;2022-11-09T08:36:07;3.92;;;0.50;;
37221;SDS011;23119;51.842;-2.230;2022-11-09T08:38:37;4.05;;;0.20;;
37221;SDS011;23119;51.842;-2.230;2022-11-09T08:41:10;2.20;;;0.20;;
37221;SDS011;23119;51.842;-2.230;2022-11-09T08:43:39;2.63;;;0.20;;
37221;SDS011;23119;51.842;-2.230;2022-11-09T08:46:07;2.92;;;0.20;;
37221;SDS011;23119;51.842;-2.230;2022-11-09T08:48:33;2.45;;;0.20;;
37221;SDS011;23119;51.842;-2.230;2022-11-09T08:50:59;4.50;;;0.20;;
37221;SDS011;23119;51.842;-2.230;2022-11-09T08:53:27;1.45;;;0.10;;
37221;SDS011;23119;51.842;-2.230;2022-11-09T08:55:54;1.00;;;0.20;;
37221;SDS011;23119;51.842;-2.230;2022-11-09T08:58:28;2.92;;;0.20;;
37221;SDS011;23119;51.842;-2.230;2022-11-09T09:01:06;2.95;;;0.20;;
37221;SDS011;23119;51.842;-2.230;2022-11-09T09:03:35;0.82;;;0.10;;
37221;SDS011;23119;51.842;-2.230;2022-11-09T09:06:05;2.22;;;0.20;;
37221;SDS011;23119;51.842;-2.230;2022-11-09T09:08:34;5.10;;;0.20;;
37221;SDS011;23119;51.842;-2.230;2022-11-09T09:11:05;1.85;;;0.20;;
37221;SDS011;23119;51.842;-2.230;2022-11-09T09:13:31;3.15;;;0.30;;
37221;SDS011;23119;51.842;-2.230;2022-11-09T09:15:57;3.90;;;0.68;;
37221;SDS011;23119;51.842;-2.230;2022-11-09T09:18:43;3.25;;;0.20;;
37221;SDS011;23119;51.842;-2.230;2022-11-09T09:21:17;2.00;;;0.20;;
37221;SDS011;23119;51.842;-2.230;2022-11-09T09:23:46;2.00;;;0.20;;
37221;SDS011;23119;51.842;-2.230;2022-11-09T09:26:17;2.47;;;0.28;;
37221;SDS011;23119;51.842;-2.230;2022-11-09T09:28:43;3.38;;;0.20;;
37221;SDS011;23119;51.842;-2.230;2022-11-09T09:31:12;3.17;;;0.70;;
37221;SDS011;23119;51.842;-2.230;2022-11-09T09:33:49;1.00;;;0.10;;
37221;SDS011;23119;51.842;-2.230;2022-11-09T09:36:18;3.83;;;0.40;;
37221;SDS011;23119;51.842;-2.230;2022-11-09T09:38:54;2.25;;;0.57;;
37221;SDS011;23119;51.842;-2.230;2022-11-09T09:41:27;7.45;;;1.10;;
37221;SDS011;23119;51.842;-2.230;2022-11-09T09:49:36;2.25;;;0.20;;
37221;SDS011;23119;51.842;-2.230;2022-11-09T09:52:28;2.45;;;0.10;;
37221;SDS011;23119;51.842;-2.230;2022-11-09T09:55:30;2.65;;;0.35;;
37221;SDS011;23119;51.842;-2.230;2022-11-09T09:58:26;1.67;;;0.15;;
37221;SDS011;23119;51.842;-2.230;2022-11-09T10:01:06;1.92;;;0.40;;
37221;SDS011;23119;51.842;-2.230;2022-11-09T10:03:43;1.27;;;0.20;;
37221;SDS011;23119;51.842;-2.230;2022-11-09T10:22:21;4.00;;;0.40;;
37221;SDS011;23119;51.842;-2.230;2022-11-09T10:25:11;2.97;;;0.30;;
37221;SDS011;23119;51.842;-2.230;2022-11-09T10:30:34;2.80;;;0.30;;
37221;SDS011;23119;51.842;-2.230;2022-11-09T10:33:14;3.45;;;0.25;;
37221;SDS011;23119;51.842;-2.230;2022-11-09T10:38:16;8.68;;;0.35;;
37221;SDS011;23119;51.842;-2.230;2022-11-09T10:41:02;4.38;;;0.30;;
37221;SDS011;23119;51.842;-2.230;2022-11-09T10:43:40;4.78;;;0.30;;
37221;SDS011;23119;51.842;-2.230;2022-11-09T10:46:07;2.45;;;0.30;;
37221;SDS011;23119;51.842;-2.230;2022-11-09T10:48:37;6.57;;;0.50;;
37221;SDS011;23119;51.842;-2.230;2022-11-09T10:51:27;6.25;;;0.77;;
37221;SDS011;23119;51.842;-2.230;2022-11-09T10:56:44;4.47;;;0.50;;
37221;SDS011;23119;51.842;-2.230;2022-11-09T11:07:33;4.68;;;0.40;;
37221;SDS011;23119;51.842;-2.230;2022-11-09T11:12:39;3.13;;;0.30;;
37221;SDS011;23119;51.842;-2.230;2022-11-09T11:15:31;1.70;;;0.20;;
37221;SDS011;23119;51.842;-2.230;2022-11-09T11:20:41;3.13;;;0.38;;
37221;SDS011;23119;51.842;-2.230;2022-11-09T11:25:53;4.00;;;0.30;;
37221;SDS011;23119;51.842;-2.230;2022-11-09T11:28:45;5.30;;;1.05;;
37221;SDS011;23119;51.842;-2.230;2022-11-09T11:31:15;2.10;;;0.20;;
37221;SDS011;23119;51.842;-2.230;2022-11-09T11:33:43;5.15;;;0.35;;
37221;SDS011;23119;51.842;-2.230;2022-11-09T11:38:55;10.02;;;0.35;;
37221;SDS011;23119;51.842;-2.230;2022-11-09T11:50:19;2.70;;;0.40;;
37221;SDS011;23119;51.842;-2.230;2022-11-09T11:53:01;15.50;;;0.47;;
37221;SDS011;23119;51.842;-2.230;2022-11-09T11:55:44;4.72;;;0.40;;
37221;SDS011;23119;51.842;-2.230;2022-11-09T12:12:06;6.10;;;0.40;;
37221;SDS011;23119;51.842;-2.230;2022-11-09T12:17:57;8.82;;;0.43;;
37221;SDS011;23119;51.842;-2.230;2022-11-09T12:29:04;6.53;;;0.50;;
37221;SDS011;23119;51.842;-2.230;2022-11-09T12:37:00;5.85;;;0.40;;
37221;SDS011;23119;51.842;-2.230;2022-11-09T12:42:31;5.97;;;0.40;;
37221;SDS011;23119;51.842;-2.230;2022-11-09T12:47:51;5.72;;;0.40;;
37221;SDS011;23119;51.842;-2.230;2022-11-09T12:50:29;6.97;;;0.40;;
37221;SDS011;23119;51.842;-2.230;2022-11-09T12:53:04;8.43;;;0.50;;
37221;SDS011;23119;51.842;-2.230;2022-11-09T12:55:48;8.02;;;0.57;;
37221;SDS011;23119;51.842;-2.230;2022-11-09T12:58:22;8.27;;;0.60;;
37221;SDS011;23119;51.842;-2.230;2022-11-09T13:00:50;4.22;;;0.38;;
37221;SDS011;23119;51.842;-2.230;2022-11-09T13:03:19;3.35;;;0.20;;
37221;SDS011;23119;51.842;-2.230;2022-11-09T13:05:47;5.25;;;0.47;;
37221;SDS011;23119;51.842;-2.230;2022-11-09T13:08:32;2.92;;;0.30;;
37221;SDS011;23119;51.842;-2.230;2022-11-09T13:11:20;3.35;;;0.30;;
37221;SDS011;23119;51.842;-2.230;2022-11-09T13:13:46;3.90;;;0.45;;
37221;SDS011;23119;51.842;-2.230;2022-11-09T13:18:49;6.65;;;0.70;;
37221;SDS011;23119;51.842;-2.230;2022-11-09T13:23:47;3.10;;;0.30;;
37221;SDS011;23119;51.842;-2.230;2022-11-09T13:34:45;5.55;;;0.40;;
37221;SDS011;23119;51.842;-2.230;2022-11-09T13:45:44;6.05;;;0.70;;
37221;SDS011;23119;51.842;-2.230;2022-11-09T13:51:21;5.00;;;0.38;;
37221;SDS011;23119;51.842;-2.230;2022-11-09T13:54:04;8.93;;;0.40;;
37221;SDS011;23119;51.842;-2.230;2022-11-09T13:56:52;5.03;;;0.30;;
37221;SDS011;23119;51.842;-2.230;2022-11-09T13:59:26;6.50;;;0.50;;
37221;SDS011;23119;51.842;-2.230;2022-11-09T14:05:20;5.57;;;0.40;;
37221;SDS011;23119;51.842;-2.230;2022-11-09T14:07:59;5.63;;;0.50;;
37221;SDS011;23119;51.842;-2.230;2022-11-09T14:10:40;8.30;;;0.65;;
37221;SDS011;23119;51.842;-2.230;2022-11-09T14:21:52;8.45;;;0.82;;
37221;SDS011;23119;51.842;-2.230;2022-11-09T14:24:21;6.68;;;0.43;;
37221;SDS011;23119;51.842;-2.230;2022-11-09T14:27:04;4.47;;;0.35;;
37221;SDS011;23119;51.842;-2.230;2022-11-09T14:29:54;8.75;;;0.40;;
37221;SDS011;23119;51.842;-2.230;2022-11-09T14:32:26;9.52;;;0.45;;
37221;SDS011;23119;51.842;-2.230;2022-11-09T14:37:42;7.70;;;0.35;;
37221;SDS011;23119;51.842;-2.230;2022-11-09T14:40:15;4.18;;;0.38;;
37221;SDS011;23119;51.842;-2.230;2022-11-09T14:42:57;5.00;;;0.60;;
37221;SDS011;23119;51.842;-2.230;2022-11-09T14:45:24;8.02;;;0.65;;
37221;SDS011;23119;51.842;-2.230;2022-11-09T14:47:55;8.43;;;0.60;;
37221;SDS011;23119;51.842;-2.230;2022-11-09T14:50:27;10.10;;;0.40;;
37221;SDS011;23119;51.842;-2.230;2022-11-09T14:52:55;7.40;;;0.32;;
37221;SDS011;23119;51.842;-2.230;2022-11-09T14:55:27;5.65;;;0.45;;
37221;SDS011;23119;51.842;-2.230;2022-11-09T14:57:54;6.32;;;0.30;;
37221;SDS011;23119;51.842;-2.230;2022-11-09T15:00:31;4.57;;;0.30;;
37221;SDS011;23119;51.842;-2.230;2022-11-09T15:02:59;13.30;;;0.50;;
37221;SDS011;23119;51.842;-2.230;2022-11-09T15:05:47;6.18;;;0.30;;
37221;SDS011;23119;51.842;-2.230;2022-11-09T15:08:18;5.40;;;0.40;;
37221;SDS011;23119;51.842;-2.230;2022-11-09T15:10:51;7.13;;;0.32;;
37221;SDS011;23119;51.842;-2.230;2022-11-09T15:13:18;7.32;;;0.32;;
37221;SDS011;23119;51.842;-2.230;2022-11-09T15:15:53;4.20;;;0.85;;
37221;SDS011;23119;51.842;-2.230;2022-11-09T15:18:21;4.78;;;0.30;;
37221;SDS011;23119;51.842;-2.230;2022-11-09T15:21:11;5.95;;;0.30;;
37221;SDS011;23119;51.842;-2.230;2022-11-09T15:24:13;5.55;;;0.60;;
37221;SDS011;23119;51.842;-2.230;2022-11-09T15:26:42;5.80;;;0.45;;
37221;SDS011;23119;51.842;-2.230;2022-11-09T15:32:02;5.57;;;0.35;;
37221;SDS011;23119;51.842;-2.230;2022-11-09T15:34:57;7.40;;;0.28;;
37221;SDS011;23119;51.842;-2.230;2022-11-09T15:40:14;6.28;;;0.30;;
37221;SDS011;23119;51.842;-2.230;2022-11-09T15:42:49;8.05;;;0.40;;
37221;SDS011;23119;51.842;-2.230;2022-11-09T15:45:16;9.32;;;0.43;;
37221;SDS011;23119;51.842;-2.230;2022-11-09T15:47:53;8.35;;;0.50;;
37221;SDS011;23119;51.842;-2.230;2022-11-09T15:50:24;8.70;;;0.55;;
37221;SDS011;23119;51.842;-2.230;2022-11-09T15:52:53;4.40;;;0.30;;
37221;SDS011;23119;51.842;-2.230;2022-11-09T15:55:36;5.28;;;0.40;;
37221;SDS011;23119;51.842;-2.230;2022-11-09T15:58:04;5.95;;;0.20;;
37221;SDS011;23119;51.842;-2.230;2022-11-09T16:00:30;7.07;;;0.73;;
37221;SDS011;23119;51.842;-2.230;2022-11-09T16:02:58;7.03;;;0.60;;
37221;SDS011;23119;51.842;-2.230;2022-11-09T16:05:34;8.05;;;0.82;;
37221;SDS011;23119;51.842;-2.230;2022-11-09T16:08:00;6.82;;;0.43;;
37221;SDS011;23119;51.842;-2.230;2022-11-09T16:10:30;3.17;;;0.38;;
37221;SDS011;23119;51.842;-2.230;2022-11-09T16:13:10;4.00;;;0.40;;
37221;SDS011;23119;51.842;-2.230;2022-11-09T16:15:41;4.97;;;0.40;;
37221;SDS011;23119;51.842;-2.230;2022-11-09T16:18:06;9.02;;;0.40;;
37221;SDS011;23119;51.842;-2.230;2022-11-09T16:20:34;6.78;;;0.40;;
37221;SDS011;23119;51.842;-2.230;2022-11-09T16:23:04;8.35;;;0.40;;
37221;SDS011;23119;51.842;-2.230;2022-11-09T16:25:30;7.07;;;0.40;;
37221;SDS011;23119;51.842;-2.230;2022-11-09T16:27:59;10.15;;;0.40;;
37221;SDS011;23119;51.842;-2.230;2022-11-09T16:30:27;7.72;;;0.52;;
37221;SDS011;23119;51.842;-2.230;2022-11-09T16:32:55;9.52;;;1.08;;
37221;SDS011;23119;51.842;-2.230;2022-11-09T16:35:27;4.65;;;0.50;;
37221;SDS011;23119;51.842;-2.230;2022-11-09T16:37:53;7.70;;;1.33;;
37221;SDS011;23119;51.842;-2.230;2022-11-09T16:40:24;8.70;;;0.98;;
37221;SDS011;23119;51.842;-2.230;2022-11-09T16:42:53;8.43;;;0.43;;
37221;SDS011;23119;51.842;-2.230;2022-11-09T16:45:23;8.95;;;0.40;;
37221;SDS011;23119;51.842;-2.230;2022-11-09T16:48:02;11.15;;;1.02;;
37221;SDS011;23119;51.842;-2.230;2022-11-09T16:50:33;9.98;;;0.60;;
37221;SDS011;23119;51.842;-2.230;2022-11-09T16:53:02;12.20;;;0.60;;
37221;SDS011;23119;51.842;-2.230;2022-11-09T16:55:30;10.15;;;0.73;;
37221;SDS011;23119;51.842;-2.230;2022-11-09T16:57:55;8.60;;;1.05;;
37221;SDS011;23119;51.842;-2.230;2022-11-09T17:00:24;6.38;;;0.60;;
37221;SDS011;23119;51.842;-2.230;2022-11-09T17:02:49;9.00;;;0.60;;
37221;SDS011;23119;51.842;-2.230;2022-11-09T17:05:23;4.38;;;0.40;;
37221;SDS011;23119;51.842;-2.230;2022-11-09T17:07:49;5.95;;;0.47;;
37221;SDS011;23119;51.842;-2.230;2022-11-09T17:10:14;3.25;;;0.50;;
37221;SDS011;23119;51.842;-2.230;2022-11-09T17:12:40;9.57;;;1.35;;
37221;SDS011;23119;51.842;-2.230;2022-11-09T17:15:06;8.75;;;0.50;;
37221;SDS011;23119;51.842;-2.230;2022-11-09T17:17:35;7.13;;;0.40;;
37221;SDS011;23119;51.842;-2.230;2022-11-09T17:20:04;8.27;;;0.60;;
37221;SDS011;23119;51.842;-2.230;2022-11-09T17:22:33;11.02;;;0.60;;
37221;SDS011;23119;51.842;-2.230;2022-11-09T17:25:01;9.07;;;1.30;;
37221;SDS011;23119;51.842;-2.230;2022-11-09T17:27:32;11.27;;;1.23;;
37221;SDS011;23119;51.842;-2.230;2022-11-09T17:30:04;5.13;;;0.60;;
37221;SDS011;23119;51.842;-2.230;2022-11-09T17:32:38;3.78;;;0.80;;